Wylie, Texas
Current Conditions -  °F | °C
As of 7:55 PM on Friday 21 Nov 2014 (Local Time) from KF46 Reporting Station
Overcast Overcast  
Wind Chill: 18°   Ceiling: 800
Heat Index: 18°   Visibility: 10mi
Dew Point: 16°   Wind: 10mph
Humidity: 91%   Direction: 160°SSE
Pressure: 30.08"   Gusts: 21mph
Location:  33.02°N, 96.51°W
Report Text: KF46 220155Z AUTO 16009G18KT 10SM OVC008 18/16 A3008 RMK AO2 T01780163
Loading
Personal Weather Stations






























Interactive Weather Map New forecast layout! Learn more

10-Day Weather Forecast

Advertisements
Track Severe Weather on mobile